createdAt,value
2023-01-11T00:00:03.109Z,84.73
2023-01-11T00:05:03.309Z,84.55
2023-01-11T00:10:03.233Z,84.69
2023-01-11T00:15:03.360Z,85.05
2023-01-11T00:20:03.100Z,84.28
2023-01-11T00:25:02.807Z,84.41
2023-01-11T00:30:02.590Z,84.34
2023-01-11T00:35:03.336Z,84.19
2023-01-11T00:40:03.204Z,83.56
2023-01-11T00:45:03.077Z,83.36
2023-01-11T00:50:02.808Z,82.71
2023-01-11T00:55:02.962Z,82.67
2023-01-11T01:00:03.442Z,81.34
2023-01-11T01:05:03.331Z,81.69
2023-01-11T01:10:03.089Z,80.25
2023-01-11T01:15:03.003Z,81.25
2023-01-11T01:20:02.626Z,80.79
2023-01-11T01:25:03.317Z,80.54
2023-01-11T01:30:03.450Z,79.66
2023-01-11T01:35:05.553Z,79.3
2023-01-11T01:40:02.728Z,79.61
2023-01-11T01:45:03.654Z,79.09
2023-01-11T01:50:03.454Z,78.82
2023-01-11T01:55:03.797Z,78.86
2023-01-11T02:00:02.923Z,77.99
2023-01-11T02:05:02.564Z,79.13
2023-01-11T02:10:03.352Z,78.84
2023-01-11T02:15:02.663Z,78.88
2023-01-11T02:20:03.365Z,80.27
2023-01-11T02:25:03.100Z,79.51
2023-01-11T02:30:02.983Z,78.43
2023-01-11T02:35:02.721Z,78.35
2023-01-11T02:40:03.435Z,78.25
2023-01-11T02:45:03.255Z,78.1
2023-01-11T02:50:02.776Z,78.24
2023-01-11T02:55:02.945Z,78.94
2023-01-11T03:00:02.389Z,79.48
2023-01-11T03:05:03.641Z,79.77
2023-01-11T03:10:02.702Z,79.63
2023-01-11T03:15:03.440Z,79.33
2023-01-11T03:20:03.179Z,78.99
2023-01-11T03:25:02.976Z,78.04
2023-01-11T03:30:03.228Z,78.77
2023-01-11T03:35:03.203Z,78.67
2023-01-11T03:40:02.948Z,79.23
2023-01-11T03:45:02.817Z,79.88
2023-01-11T03:50:02.686Z,79
2023-01-11T03:55:03.869Z,79.06
2023-01-11T04:00:03.120Z,79.64
2023-01-11T04:05:02.757Z,80.1
2023-01-11T04:10:03.419Z,80.36
2023-01-11T04:15:03.253Z,80.62
2023-01-11T04:20:03.058Z,80.73
2023-01-11T04:25:02.784Z,80.75
2023-01-11T04:30:02.569Z,80.8
2023-01-11T04:35:03.363Z,80.9
2023-01-11T04:40:03.074Z,80.13
2023-01-11T04:45:03.121Z,80.64
2023-01-11T04:50:03.081Z,80.61
2023-01-11T04:55:03.292Z,81.53
2023-01-11T05:00:03.396Z,81.87
2023-01-11T05:05:03.138Z,81.7
2023-01-11T05:10:03.165Z,82.14
2023-01-11T05:15:02.289Z,82.09
2023-01-11T05:20:02.633Z,81.32
2023-01-11T05:25:03.501Z,81.39
2023-01-11T05:30:03.402Z,81.42
2023-01-11T05:35:03.039Z,81.27
2023-01-11T05:40:03.195Z,81.54
2023-01-11T05:45:02.931Z,80.97
2023-01-11T05:50:02.554Z,81.37
2023-01-11T05:55:03.402Z,81.67
2023-01-11T06:00:03.219Z,81.11
2023-01-11T06:05:02.942Z,81.17
2023-01-11T06:10:02.741Z,82.42
2023-01-11T06:15:03.042Z,82.35
2023-01-11T06:20:02.702Z,83.27
2023-01-11T06:25:03.413Z,83.25
2023-01-11T06:30:03.176Z,83.08
2023-01-11T06:35:02.835Z,83.47
2023-01-11T06:40:02.779Z,84.12
2023-01-11T06:45:02.854Z,84.68
2023-01-11T06:50:02.737Z,84.77
2023-01-11T06:55:03.435Z,85.85
2023-01-11T07:00:03.074Z,85.35
2023-01-11T07:05:02.893Z,85.38
2023-01-11T07:10:02.906Z,85.41
2023-01-11T07:15:02.839Z,85.96
2023-01-11T07:20:02.609Z,86.43
2023-01-11T07:25:03.483Z,86.43
2023-01-11T07:30:03.226Z,87.31
2023-01-11T07:35:02.617Z,87.26
2023-01-11T07:40:02.679Z,87.7
2023-01-11T07:45:02.610Z,86.5
2023-01-11T07:50:02.717Z,86.14
2023-01-11T07:55:04.081Z,86.1
2023-01-11T08:00:03.214Z,86.42
2023-01-11T08:05:03.306Z,86.33
2023-01-11T08:10:02.685Z,86.15
2023-01-11T08:15:02.567Z,86.36
2023-01-11T08:20:03.358Z,86.58
2023-01-11T08:25:03.163Z,85.88
2023-01-11T08:30:02.940Z,86.41
2023-01-11T08:35:02.857Z,86.13
2023-01-11T08:40:02.680Z,85.75
2023-01-11T08:45:03.427Z,85.83
2023-01-11T08:50:03.220Z,85.58
2023-01-11T08:55:03.484Z,85.74
2023-01-11T09:00:02.882Z,85.78
2023-01-11T09:05:03.309Z,85.56
2023-01-11T09:10:03.066Z,84.86
2023-01-11T09:15:03.278Z,84.53
2023-01-11T09:20:03.253Z,85.25
2023-01-11T09:25:02.702Z,85.46
2023-01-11T09:30:03.508Z,85.11
2023-01-11T09:35:03.149Z,84.79
2023-01-11T09:40:03.101Z,85.09
2023-01-11T09:45:02.886Z,84.67
2023-01-11T09:50:02.776Z,85.05
2023-01-11T09:55:03.331Z,85.53
2023-01-11T10:00:02.991Z,85.06
2023-01-11T10:05:03.256Z,85.3
2023-01-11T10:20:02.816Z,85.14
2023-01-11T10:25:03.323Z,84.29
2023-01-11T10:30:03.022Z,84.87
2023-01-11T10:35:02.761Z,84.13
2023-01-11T10:40:02.598Z,84.37
2023-01-11T10:45:03.473Z,83.88
2023-01-11T10:50:06.983Z,82.87
2023-01-11T10:55:03.377Z,83.59
2023-01-11T11:00:02.812Z,83.75
2023-01-11T11:05:02.789Z,82.38
2023-01-11T11:10:03.973Z,84.06
2023-01-11T11:15:03.174Z,86.23
2023-01-11T11:20:03.069Z,87.42
2023-01-11T11:25:02.995Z,88.37
2023-01-11T11:30:02.638Z,89.63
2023-01-11T11:35:03.317Z,88.66
2023-01-11T11:40:03.085Z,89.28
2023-01-11T11:45:02.875Z,91.74
2023-01-11T11:50:02.655Z,91.72
2023-01-11T11:55:03.834Z,92.77
2023-01-11T12:00:03.194Z,93.71
2023-01-11T12:05:03.070Z,94.33
2023-01-11T12:10:02.529Z,94.94
2023-01-11T12:15:03.354Z,95.41
2023-01-11T12:20:02.632Z,95.95
2023-01-11T12:25:03.510Z,96.13
2023-01-11T12:30:03.434Z,96.32
2023-01-11T12:35:03.297Z,96.75
2023-01-11T12:40:03.147Z,96.63
2023-01-11T12:45:03.333Z,96.25
2023-01-11T12:50:02.997Z,96.86
2023-01-11T12:55:03.478Z,97.16
2023-01-11T13:00:02.808Z,97.23
2023-01-11T13:05:02.518Z,97.26
2023-01-11T13:10:03.337Z,97.55
2023-01-11T13:15:03.203Z,97.84
2023-01-11T13:20:02.936Z,97.73
2023-01-11T13:25:02.640Z,97.78
2023-01-11T13:30:03.301Z,98.05
2023-01-11T13:35:03.136Z,97.52
2023-01-11T13:40:03.011Z,97.49
2023-01-11T13:45:03.027Z,97.25
2023-01-11T13:50:02.969Z,97.57
2023-01-11T13:55:26.544Z,98.09
2023-01-11T14:00:03.370Z,98.29
2023-01-11T14:05:03.395Z,98.3
2023-01-11T14:10:03.325Z,98.37
2023-01-11T14:15:03.102Z,97.49
2023-01-11T14:20:02.949Z,98.22
2023-01-11T14:25:02.795Z,98.48
2023-01-11T14:30:02.675Z,98.42
2023-01-11T14:35:03.364Z,98.48
2023-01-11T14:40:03.100Z,99.13
2023-01-11T14:45:02.885Z,98.71
2023-01-11T14:50:02.637Z,98.81
2023-01-11T14:55:03.857Z,99.4
2023-01-11T15:00:03.151Z,98.67
2023-01-11T15:05:02.984Z,99.35
2023-01-11T15:10:03.022Z,99.1
2023-01-11T15:15:02.810Z,99.46
2023-01-11T15:20:03.190Z,98.92
2023-01-11T15:25:03.018Z,99.27
2023-01-11T15:30:02.723Z,98.96
2023-01-11T15:35:02.488Z,98.35
2023-01-11T15:40:03.253Z,98.04
2023-01-11T15:45:02.968Z,98.67
2023-01-11T15:50:02.465Z,98.74
2023-01-11T15:55:02.701Z,98.63
2023-01-11T16:00:02.650Z,98.63
2023-01-11T16:10:03.006Z,99.06
2023-01-11T16:15:03.449Z,99.16
2023-01-11T16:20:03.489Z,99.57
2023-01-11T16:25:03.362Z,98.78
2023-01-11T16:35:03.285Z,99.13
2023-01-11T16:40:03.274Z,99.57
2023-01-11T16:45:02.837Z,99.42
2023-01-11T16:50:02.780Z,99.67
2023-01-11T16:55:03.370Z,99
2023-01-11T17:00:03.137Z,98.66
2023-01-11T17:05:03.036Z,98.12
2023-01-11T17:10:02.889Z,97.79
2023-01-11T17:15:02.658Z,98.25
2023-01-11T17:20:03.643Z,96.95
2023-01-11T17:25:03.084Z,98.17
2023-01-11T17:30:02.820Z,97.3
2023-01-11T17:35:03.399Z,97.62
2023-01-11T17:40:03.118Z,96.85
2023-01-11T17:45:03.333Z,96.82
2023-01-11T17:50:03.069Z,97.5
2023-01-11T17:55:03.335Z,97.63
2023-01-11T18:00:03.539Z,96.94
2023-01-11T18:05:03.303Z,97.14
2023-01-11T18:10:04.378Z,97.47
2023-01-11T18:15:03.345Z,97.5
2023-01-11T18:20:03.035Z,97.33
2023-01-11T18:25:02.692Z,97.46
2023-01-11T18:30:02.795Z,97.64
2023-01-11T18:35:03.598Z,96.8
2023-01-11T18:40:03.161Z,96.97
2023-01-11T18:45:02.937Z,96.65
2023-01-11T18:50:02.628Z,97.71
2023-01-11T18:55:03.550Z,98.32
2023-01-11T19:00:03.387Z,99.67
2023-01-11T19:05:03.316Z,99.96
2023-01-11T19:10:03.130Z,100
2023-01-11T19:15:03.263Z,99.92
2023-01-11T19:20:02.456Z,99.99
2023-01-11T19:25:02.212Z,100
2023-01-11T19:30:03.309Z,100
2023-01-11T19:35:03.201Z,100
2023-01-11T19:40:03.115Z,100
2023-01-11T19:45:02.875Z,100
2023-01-11T19:50:02.583Z,100
2023-01-11T19:55:03.397Z,100
2023-01-11T20:00:03.397Z,100
2023-01-11T20:05:03.080Z,100
2023-01-11T20:10:02.772Z,100
2023-01-11T20:15:03.032Z,100
2023-01-11T20:20:02.714Z,100
2023-01-11T20:25:02.595Z,100
2023-01-11T20:30:02.906Z,100
2023-01-11T20:35:02.851Z,100
2023-01-11T20:40:02.584Z,100
2023-01-11T20:45:02.648Z,100
2023-01-11T20:50:02.748Z,97.66
2023-01-11T20:55:07.939Z,97.23
2023-01-11T21:00:02.978Z,95.74
2023-01-11T21:05:02.723Z,94.26
2023-01-11T21:10:02.853Z,94.1
2023-01-11T21:15:02.581Z,94.43
2023-01-11T21:20:03.361Z,95.72
2023-01-11T21:25:03.142Z,96.7
2023-01-11T21:30:03.328Z,97.13
2023-01-11T21:35:02.708Z,97.58
2023-01-11T21:40:02.398Z,98.33
2023-01-11T21:45:02.789Z,98.91
2023-01-11T21:50:02.658Z,98.54
2023-01-11T21:55:03.967Z,99.48
2023-01-11T22:00:03.183Z,98.96
2023-01-11T22:05:02.908Z,99.34
2023-01-11T22:10:06.051Z,99.21
2023-01-11T22:15:02.981Z,99.51
2023-01-11T22:20:02.561Z,99.17
2023-01-11T22:25:03.641Z,98.9
2023-01-11T22:30:03.049Z,98.28
2023-01-11T22:35:02.752Z,98.52
2023-01-11T22:40:03.437Z,97.52
2023-01-11T22:45:03.223Z,98.88
2023-01-11T22:50:02.917Z,98.24
2023-01-11T22:55:02.848Z,98.64
2023-01-11T23:00:03.389Z,97.69
2023-01-11T23:05:03.132Z,97.71
2023-01-11T23:10:02.870Z,97.42
2023-01-11T23:15:02.788Z,95.97
2023-01-11T23:20:02.829Z,95.53
2023-01-11T23:25:02.878Z,95.15
2023-01-11T23:30:02.574Z,95.38
2023-01-11T23:35:03.381Z,95.24
2023-01-11T23:40:03.209Z,95.37
2023-01-11T23:45:03.113Z,95.33
2023-01-11T23:50:02.765Z,94.68
2023-01-11T23:55:02.625Z,93.9
